KDNN 190955Z AUTO 00000KT 10SM CLR 01/M06 A3034 RMK AO2